Time;durP1;ratioP1;P1;durP2;ratioP2;P2;SDS_P1;SDS_P2;PMS_P1;PMS_P2;Temp;Humidity;BMP_temperature;BMP_pressure;BME280_temperature;BME280_humidity;BME280_pressure;Samples;Min_cycle;Max_cycle;Signal;HPM_P1;HPM_P2
2021/07/17 00:01:16;;;;;;;0.10;0.10;;;;;;;;;;4828382;29;20509;-90
2021/07/17 00:03:42;;;;;;;0.10;0.10;;;;;;;;;;4843441;29;20089;-90
2021/07/17 00:06:10;;;;;;;0.10;0.10;;;;;;;;;;4843936;29;20076;-90
2021/07/17 00:08:36;;;;;;;0.10;0.10;;;;;;;;;;4843568;29;20469;-90
2021/07/17 00:11:02;;;;;;;0.10;0.10;;;;;;;;;;4813338;29;20538;-89
2021/07/17 00:13:28;;;;;;;0.10;0.10;;;;;;;;;;4828283;29;20421;-90
2021/07/17 00:15:56;;;;;;;0.10;0.10;;;;;;;;;;4828539;29;20049;-91
2021/07/17 00:18:22;;;;;;;0.20;0.20;;;;;;;;;;4828668;29;20037;-91
2021/07/17 00:20:48;;;;;;;0.10;0.10;;;;;;;;;;4828489;29;20514;-90
2021/07/17 00:23:15;;;;;;;0.20;0.20;;;;;;;;;;4828373;29;20041;-91
2021/07/17 00:25:43;;;;;;;0.10;0.10;;;;;;;;;;4843847;29;20455;-90
2021/07/17 00:28:09;;;;;;;0.10;0.10;;;;;;;;;;4813732;29;20148;-90
2021/07/17 00:30:35;;;;;;;0.10;0.10;;;;;;;;;;4828496;29;20053;-92
2021/07/17 00:33:03;;;;;;;0.20;0.20;;;;;;;;;;4828420;29;20053;-91
2021/07/17 00:35:29;;;;;;;0.10;0.10;;;;;;;;;;4828537;29;20470;-91
2021/07/17 00:37:55;;;;;;;0.10;0.10;;;;;;;;;;4828347;29;20133;-89
2021/07/17 00:40:21;;;;;;;0.10;0.10;;;;;;;;;;4829061;29;20037;-90
2021/07/17 00:42:48;;;;;;;0.10;0.10;;;;;;;;;;4831164;29;20056;-90
2021/07/17 00:45:16;;;;;;;0.10;0.10;;;;;;;;;;4831185;29;20041;-91
2021/07/17 00:47:43;;;;;;;0.20;0.20;;;;;;;;;;4816666;29;20053;-90
2021/07/17 00:50:10;;;;;;;0.20;0.20;;;;;;;;;;4831176;29;20056;-90
2021/07/17 00:52:36;;;;;;;0.15;0.15;;;;;;;;;;4831340;29;20050;-89
2021/07/17 00:55:05;;;;;;;0.20;0.20;;;;;;;;;;4846577;29;20045;-89
2021/07/17 00:57:33;;;;;;;0.10;0.10;;;;;;;;;;4831010;29;20045;-90
2021/07/17 01:00:00;;;;;;;0.10;0.10;;;;;;;;;;4830842;29;20105;-90
2021/07/17 01:02:26;;;;;;;0.20;0.20;;;;;;;;;;4831013;29;20034;-89
2021/07/17 01:04:53;;;;;;;0.10;0.10;;;;;;;;;;4830655;29;20045;-88
2021/07/17 01:07:25;;;;;;;0.10;0.10;;;;;;;;;;4831672;29;20046;-89
2021/07/17 01:09:52;;;;;;;0.10;0.10;;;;;;;;;;4831079;29;20053;-95
2021/07/17 01:12:18;;;;;;;0.20;0.20;;;;;;;;;;4816504;29;20049;-90
2021/07/17 01:14:45;;;;;;;0.25;0.25;;;;;;;;;;4845947;29;20048;-90
2021/07/17 01:17:11;;;;;;;0.20;0.20;;;;;;;;;;4845924;29;20090;-89
2021/07/17 01:19:37;;;;;;;0.10;0.10;;;;;;;;;;4815717;29;20045;-89
2021/07/17 01:22:03;;;;;;;0.10;0.10;;;;;;;;;;4830267;29;20041;-89
2021/07/17 01:24:29;;;;;;;0.10;0.10;;;;;;;;;;4829945;29;20076;-89
2021/07/17 01:26:55;;;;;;;0.10;0.10;;;;;;;;;;4830537;29;20048;-90
2021/07/17 01:29:21;;;;;;;0.10;0.10;;;;;;;;;;4830452;29;20044;-89
2021/07/17 01:31:47;;;;;;;0.10;0.10;;;;;;;;;;4830378;29;20049;-89
2021/07/17 01:34:13;;;;;;;0.30;0.30;;;;;;;;;;4815610;29;20054;-89
2021/07/17 01:36:40;;;;;;;0.10;0.10;;;;;;;;;;4845521;29;20038;-89
2021/07/17 01:39:06;;;;;;;0.10;0.10;;;;;;;;;;4830272;29;20042;-89
2021/07/17 01:41:33;;;;;;;0.10;0.10;;;;;;;;;;4829963;29;20041;-89
2021/07/17 01:43:59;;;;;;;0.20;0.20;;;;;;;;;;4845403;29;20124;-89
2021/07/17 01:46:27;;;;;;;0.10;0.10;;;;;;;;;;4845056;29;20045;-89
2021/07/17 01:48:54;;;;;;;0.10;0.10;;;;;;;;;;4829770;29;20060;-89
2021/07/17 01:51:21;;;;;;;0.10;0.10;;;;;;;;;;4829951;29;20037;-88
2021/07/17 01:53:56;;;;;;;0.10;0.10;;;;;;;;;;4815070;29;20076;-88
2021/07/17 01:56:22;;;;;;;0.10;0.10;;;;;;;;;;4829919;29;20105;-89
2021/07/17 01:58:51;;;;;;;0.10;0.10;;;;;;;;;;4829898;29;20050;-88
2021/07/17 02:01:17;;;;;;;0.10;0.10;;;;;;;;;;4830167;29;20047;-88
2021/07/17 02:03:47;;;;;;;0.10;0.10;;;;;;;;;;4829902;29;20406;-88
2021/07/17 02:06:13;;;;;;;0.10;0.10;;;;;;;;;;4829746;29;20089;-88
2021/07/17 02:08:43;;;;;;;0.10;0.10;;;;;;;;;;4829382;29;20045;-88
2021/07/17 02:11:09;;;;;;;0.10;0.10;;;;;;;;;;4829875;29;20046;-88
2021/07/17 02:13:35;;;;;;;0.10;0.10;;;;;;;;;;4844644;29;20052;-88
2021/07/17 02:16:01;;;;;;;0.10;0.10;;;;;;;;;;4844650;29;20125;-88
2021/07/17 02:18:32;;;;;;;0.25;0.25;;;;;;;;;;4829378;29;20075;-88
2021/07/17 02:21:07;;;;;;;0.20;0.20;;;;;;;;;;4829838;29;20049;-88
2021/07/17 02:23:34;;;;;;;0.10;0.10;;;;;;;;;;4829237;29;20059;-88
2021/07/17 02:26:01;;;;;;;0.20;0.20;;;;;;;;;;4844623;29;20051;-87
2021/07/17 02:28:27;;;;;;;0.10;0.10;;;;;;;;;;4844434;29;20053;-88
2021/07/17 02:30:53;;;;;;;0.10;0.10;;;;;;;;;;4829341;29;20041;-88
2021/07/17 02:33:19;;;;;;;0.20;0.20;;;;;;;;;;4829400;29;20045;-87
2021/07/17 02:35:45;;;;;;;0.10;0.10;;;;;;;;;;4829203;29;20045;-88
2021/07/17 02:38:12;;;;;;;0.10;0.10;;;;;;;;;;4829059;29;20041;-87
2021/07/17 02:40:38;;;;;;;0.13;0.13;;;;;;;;;;4829050;29;20042;-88
2021/07/17 02:43:04;;;;;;;0.10;0.10;;;;;;;;;;4813728;29;20097;-87
2021/07/17 02:45:30;;;;;;;0.10;0.10;;;;;;;;;;4828997;29;20461;-88
2021/07/17 02:47:56;;;;;;;0.10;0.10;;;;;;;;;;4828874;29;20151;-88
2021/07/17 02:50:22;;;;;;;0.10;0.10;;;;;;;;;;4828611;29;20089;-88
2021/07/17 02:52:48;;;;;;;0.10;0.10;;;;;;;;;;4829076;29;20075;-88
2021/07/17 02:55:14;;;;;;;0.10;0.10;;;;;;;;;;4844014;29;20049;-88
2021/07/17 02:57:41;;;;;;;0.10;0.10;;;;;;;;;;4843936;29;20037;-88
2021/07/17 03:00:07;;;;;;;0.10;0.10;;;;;;;;;;4828855;29;20112;-88
2021/07/17 03:02:33;;;;;;;0.10;0.10;;;;;;;;;;4843486;29;20041;-87
2021/07/17 03:04:59;;;;;;;0.10;0.10;;;;;;;;;;4828653;29;20431;-88
2021/07/17 03:07:25;;;;;;;0.10;0.10;;;;;;;;;;4843744;29;20482;-88
2021/07/17 03:09:53;;;;;;;0.10;0.10;;;;;;;;;;4844128;29;20277;-89
2021/07/17 03:12:19;;;;;;;0.10;0.10;;;;;;;;;;4828980;29;20217;-89
2021/07/17 03:14:45;;;;;;;0.10;0.10;;;;;;;;;;4828784;29;20501;-89
2021/07/17 03:17:12;;;;;;;0.10;0.10;;;;;;;;;;4843750;29;20101;-89
2021/07/17 03:19:39;;;;;;;0.10;0.10;;;;;;;;;;4828762;29;20045;-89
2021/07/17 03:22:06;;;;;;;0.10;0.10;;;;;;;;;;4813763;29;20050;-89
2021/07/17 03:24:32;;;;;;;0.10;0.10;;;;;;;;;;4828969;29;20042;-89
2021/07/17 03:27:04;;;;;;;0.10;0.10;;;;;;;;;;4814928;29;20387;-89
2021/07/17 03:29:30;;;;;;;0.10;0.10;;;;;;;;;;4843689;29;20037;-89
2021/07/17 03:31:57;;;;;;;0.10;0.10;;;;;;;;;;4813347;29;20060;-89
2021/07/17 03:34:23;;;;;;;0.10;0.10;;;;;;;;;;4843859;29;20101;-89
2021/07/17 03:36:49;;;;;;;0.10;0.10;;;;;;;;;;4843712;29;20037;-89
2021/07/17 03:39:15;;;;;;;0.10;0.10;;;;;;;;;;4828504;29;20050;-88
2021/07/17 03:41:43;;;;;;;0.20;0.20;;;;;;;;;;4843666;29;20037;-90
2021/07/17 03:44:10;;;;;;;0.10;0.10;;;;;;;;;;4828366;29;20037;-89
2021/07/17 03:46:36;;;;;;;0.10;0.10;;;;;;;;;;4828298;29;20495;-89
2021/07/17 03:49:03;;;;;;;0.10;0.10;;;;;;;;;;4828468;29;20456;-89
2021/07/17 03:51:29;;;;;;;0.10;0.10;;;;;;;;;;4828473;29;20129;-89
2021/07/17 03:53:57;;;;;;;0.10;0.10;;;;;;;;;;4828874;29;20046;-88
2021/07/17 03:56:23;;;;;;;0.10;0.10;;;;;;;;;;4828515;29;20114;-89
2021/07/17 03:58:50;;;;;;;0.10;0.10;;;;;;;;;;4813563;29;20045;-90
2021/07/17 04:01:17;;;;;;;0.10;0.10;;;;;;;;;;4828431;29;20045;-90
2021/07/17 04:03:46;;;;;;;0.10;0.10;;;;;;;;;;4828545;29;20073;-89
2021/07/17 04:06:12;;;;;;;0.10;0.10;;;;;;;;;;4828839;29;20042;-90
2021/07/17 04:08:38;;;;;;;0.10;0.10;;;;;;;;;;4843525;29;20048;-90
2021/07/17 04:11:06;;;;;;;0.10;0.10;;;;;;;;;;4828349;29;20094;-89
2021/07/17 04:13:32;;;;;;;0.20;0.20;;;;;;;;;;4828140;29;20471;-89
2021/07/17 04:15:58;;;;;;;0.10;0.10;;;;;;;;;;4830061;29;20677;-89
2021/07/17 04:18:24;;;;;;;0.10;0.10;;;;;;;;;;4831598;29;20546;-91
2021/07/17 04:20:50;;;;;;;0.10;0.10;;;;;;;;;;4831450;29;20411;-89
2021/07/17 04:23:16;;;;;;;0.10;0.10;;;;;;;;;;4816621;29;20049;-89
2021/07/17 04:25:43;;;;;;;0.10;0.10;;;;;;;;;;4831557;29;20049;-89
2021/07/17 04:28:10;;;;;;;0.20;0.20;;;;;;;;;;4831188;29;20045;-89
2021/07/17 04:30:36;;;;;;;0.10;0.10;;;;;;;;;;4831280;29;20046;-89
2021/07/17 04:33:02;;;;;;;0.10;0.10;;;;;;;;;;4831211;29;20065;-89
2021/07/17 04:35:28;;;;;;;0.20;0.20;;;;;;;;;;4831492;29;20525;-89
2021/07/17 04:37:54;;;;;;;0.10;0.10;;;;;;;;;;4816384;29;20072;-90
2021/07/17 04:40:20;;;;;;;0.20;0.20;;;;;;;;;;4831193;29;20121;-89
2021/07/17 04:42:46;;;;;;;0.10;0.10;;;;;;;;;;4846451;29;20038;-89
2021/07/17 04:45:12;;;;;;;0.10;0.10;;;;;;;;;;4831208;29;20046;-89
2021/07/17 04:47:38;;;;;;;0.10;0.10;;;;;;;;;;4846527;29;20045;-90
2021/07/17 04:50:06;;;;;;;0.20;0.20;;;;;;;;;;4815824;29;20053;-88
2021/07/17 04:52:32;;;;;;;0.10;0.10;;;;;;;;;;4830964;29;20051;-89
2021/07/17 04:54:58;;;;;;;0.10;0.10;;;;;;;;;;4846459;29;20557;-90
2021/07/17 04:57:24;;;;;;;0.20;0.20;;;;;;;;;;4831090;29;20483;-90
2021/07/17 04:59:50;;;;;;;0.10;0.10;;;;;;;;;;4830976;29;20045;-89
2021/07/17 05:02:16;;;;;;;0.10;0.10;;;;;;;;;;4830877;29;20041;-89
2021/07/17 05:04:42;;;;;;;0.10;0.10;;;;;;;;;;4831006;29;20048;-89
2021/07/17 05:07:08;;;;;;;0.10;0.10;;;;;;;;;;4845974;29;20053;-89
2021/07/17 05:09:34;;;;;;;0.13;0.13;;;;;;;;;;4830682;29;20042;-90
2021/07/17 05:12:01;;;;;;;0.10;0.10;;;;;;;;;;4830686;29;20546;-89
2021/07/17 05:14:27;;;;;;;0.10;0.10;;;;;;;;;;4830834;29;20098;-90
2021/07/17 05:16:53;;;;;;;0.10;0.10;;;;;;;;;;4830902;29;20056;-90
2021/07/17 05:19:19;;;;;;;0.10;0.10;;;;;;;;;;4830646;29;20038;-89
2021/07/17 05:21:45;;;;;;;0.10;0.10;;;;;;;;;;4830719;29;20124;-90
2021/07/17 05:24:11;;;;;;;0.52;0.52;;;;;;;;;;4815556;29;20053;-90
2021/07/17 05:26:37;;;;;;;0.10;0.10;;;;;;;;;;4815109;29;20491;-89
2021/07/17 05:29:03;;;;;;;0.10;0.10;;;;;;;;;;4815676;29;20062;-91
2021/07/17 05:31:30;;;;;;;0.20;0.20;;;;;;;;;;4831205;29;20490;-90
2021/07/17 05:33:57;;;;;;;0.20;0.20;;;;;;;;;;4862609;29;20073;-91
2021/07/17 05:36:23;;;;;;;0.10;0.10;;;;;;;;;;4830301;29;20116;-90
2021/07/17 05:38:49;;;;;;;0.20;0.20;;;;;;;;;;4814936;29;20088;-89
2021/07/17 05:41:15;;;;;;;0.10;0.10;;;;;;;;;;4830249;29;20120;-89
2021/07/17 05:43:42;;;;;;;0.13;0.13;;;;;;;;;;4830076;29;20098;-89
2021/07/17 05:46:08;;;;;;;0.20;0.20;;;;;;;;;;4845350;29;20222;-89
2021/07/17 05:48:34;;;;;;;0.10;0.10;;;;;;;;;;4845133;29;20124;-90
2021/07/17 05:51:00;;;;;;;0.10;0.10;;;;;;;;;;4830410;29;20041;-90
2021/07/17 05:53:26;;;;;;;0.20;0.20;;;;;;;;;;4830124;29;20045;-89
2021/07/17 05:55:53;;;;;;;0.10;0.10;;;;;;;;;;4814993;29;20057;-90
2021/07/17 05:58:20;;;;;;;0.20;0.20;;;;;;;;;;4845206;29;20055;-90
2021/07/17 06:00:46;;;;;;;0.10;0.10;;;;;;;;;;4830103;29;20117;-90
2021/07/17 06:03:12;;;;;;;0.10;0.10;;;;;;;;;;4814828;29;20049;-90
2021/07/17 06:05:38;;;;;;;0.10;0.10;;;;;;;;;;4845179;29;20052;-90
2021/07/17 06:08:05;;;;;;;0.10;0.10;;;;;;;;;;4829626;29;20046;-90
2021/07/17 06:10:31;;;;;;;0.25;0.25;;;;;;;;;;4814628;29;20486;-91
2021/07/17 06:12:59;;;;;;;0.10;0.10;;;;;;;;;;4830029;29;20057;-90
2021/07/17 06:15:25;;;;;;;0.20;0.20;;;;;;;;;;4829770;29;20044;-89
2021/07/17 06:17:53;;;;;;;0.10;0.10;;;;;;;;;;4814377;29;20056;-91
2021/07/17 06:20:20;;;;;;;0.20;0.20;;;;;;;;;;4830245;29;20049;-91
2021/07/17 06:22:46;;;;;;;0.10;0.10;;;;;;;;;;4844666;29;20479;-92
2021/07/17 06:25:12;;;;;;;0.10;0.10;;;;;;;;;;4844835;29;20045;-92
2021/07/17 06:27:38;;;;;;;0.28;0.28;;;;;;;;;;4844750;29;20406;-91
2021/07/17 06:30:07;;;;;;;0.10;0.10;;;;;;;;;;4830572;29;20038;-92
2021/07/17 06:32:33;;;;;;;0.10;0.10;;;;;;;;;;4830009;29;20041;-90
2021/07/17 06:34:59;;;;;;;0.10;0.10;;;;;;;;;;4829527;29;20045;-90
2021/07/17 06:37:26;;;;;;;0.10;0.10;;;;;;;;;;4829721;29;20069;-95
2021/07/17 06:39:55;;;;;;;0.20;0.20;;;;;;;;;;4830550;29;20041;-91
2021/07/17 06:42:24;;;;;;;0.20;0.20;;;;;;;;;;4849238;29;20101;-96
2021/07/17 06:44:54;;;;;;;0.10;0.10;;;;;;;;;;4820153;29;20133;-96
2021/07/17 06:47:20;;;;;;;0.10;0.10;;;;;;;;;;4849412;29;20046;-95
2021/07/17 06:50:06;;;;;;;0.25;0.15;;;;;;;;;;4813319;29;20061;-94
2021/07/17 06:52:32;;;;;;;0.10;0.10;;;;;;;;;;4788014;29;20054;-95
2021/07/17 06:54:58;;;;;;;0.28;0.28;;;;;;;;;;4778956;29;20488;-94
2021/07/17 06:57:28;;;;;;;0.13;0.13;;;;;;;;;;4780275;29;20116;-96
2021/07/17 06:59:56;;;;;;;0.20;0.20;;;;;;;;;;4781500;29;20122;-94
2021/07/17 07:02:22;;;;;;;0.20;0.20;;;;;;;;;;4778336;29;20049;-93
2021/07/17 07:04:48;;;;;;;0.20;0.20;;;;;;;;;;4808374;29;20042;-93
2021/07/17 07:07:14;;;;;;;0.10;0.10;;;;;;;;;;4793942;29;20487;-92
2021/07/17 07:09:40;;;;;;;0.20;0.20;;;;;;;;;;4793068;29;20050;-92
2021/07/17 07:12:06;;;;;;;0.60;0.17;;;;;;;;;;4793271;29;20038;-91
2021/07/17 07:14:33;;;;;;;0.20;0.20;;;;;;;;;;4808298;29;20042;-90
2021/07/17 07:16:59;;;;;;;0.32;0.32;;;;;;;;;;4792493;29;20046;-91
2021/07/17 07:19:25;;;;;;;0.20;0.20;;;;;;;;;;4792589;29;20034;-93
2021/07/17 07:21:51;;;;;;;0.20;0.20;;;;;;;;;;4792111;29;20111;-90
2021/07/17 07:24:17;;;;;;;0.40;0.40;;;;;;;;;;4792262;29;20050;-91
2021/07/17 07:26:43;;;;;;;0.13;0.13;;;;;;;;;;4792470;29;20571;-93
2021/07/17 07:29:09;;;;;;;0.15;0.15;;;;;;;;;;4777810;29;20107;-91
2021/07/17 07:31:35;;;;;;;0.20;0.20;;;;;;;;;;4792477;29;20073;-88
2021/07/17 07:34:01;;;;;;;0.20;0.20;;;;;;;;;;4806962;29;20106;-90
2021/07/17 07:36:27;;;;;;;0.10;0.10;;;;;;;;;;4791922;29;20102;-90
2021/07/17 07:38:53;;;;;;;0.20;0.20;;;;;;;;;;4807004;29;20054;-90
2021/07/17 07:41:19;;;;;;;0.20;0.20;;;;;;;;;;4791988;29;20555;-91
2021/07/17 07:43:46;;;;;;;0.20;0.20;;;;;;;;;;4791918;29;20058;-90
2021/07/17 07:46:12;;;;;;;0.20;0.20;;;;;;;;;;4807028;29;20038;-89
2021/07/17 07:48:41;;;;;;;0.20;0.20;;;;;;;;;;4792166;29;20038;-89
2021/07/17 07:51:07;;;;;;;0.20;0.20;;;;;;;;;;4814356;29;20057;-90
2021/07/17 07:53:33;;;;;;;0.20;0.20;;;;;;;;;;4829047;29;20050;-91
2021/07/17 07:56:02;;;;;;;0.20;0.20;;;;;;;;;;4831043;29;20680;-89
2021/07/17 07:58:28;;;;;;;0.20;0.20;;;;;;;;;;4817172;29;20413;-94
2021/07/17 08:00:54;;;;;;;0.20;0.20;;;;;;;;;;4831610;29;20038;-88
2021/07/17 08:03:20;;;;;;;0.20;0.20;;;;;;;;;;4831468;29;20057;-90
2021/07/17 08:05:51;;;;;;;0.20;0.20;;;;;;;;;;4832124;29;20034;-92
2021/07/17 08:08:17;;;;;;;0.30;0.30;;;;;;;;;;4847493;29;20049;-92
2021/07/17 08:10:45;;;;;;;0.20;0.20;;;;;;;;;;4832860;29;20535;-94
2021/07/17 08:13:12;;;;;;;0.20;0.20;;;;;;;;;;4831998;29;20466;-91
2021/07/17 08:15:38;;;;;;;0.20;0.20;;;;;;;;;;4831924;29;20045;-91
2021/07/17 08:18:04;;;;;;;0.20;0.20;;;;;;;;;;4846949;29;20060;-92
2021/07/17 08:20:31;;;;;;;0.20;0.20;;;;;;;;;;4831636;29;20120;-92
2021/07/17 08:22:59;;;;;;;0.20;0.20;;;;;;;;;;4831455;29;20098;-91
2021/07/17 08:25:27;;;;;;;0.20;0.20;;;;;;;;;;4816796;29;20252;-93
2021/07/17 08:28:03;;;;;;;0.20;0.20;;;;;;;;;;4848220;29;20069;-91
2021/07/17 08:30:29;;;;;;;0.20;0.20;;;;;;;;;;4816660;29;20053;-91
2021/07/17 08:32:55;;;;;;;0.20;0.20;;;;;;;;;;4831078;29;20046;-89
2021/07/17 08:35:21;;;;;;;0.20;0.20;;;;;;;;;;4831102;29;20052;-90
2021/07/17 08:37:47;;;;;;;0.30;0.30;;;;;;;;;;4816132;29;20081;-89
2021/07/17 08:40:13;;;;;;;0.20;0.20;;;;;;;;;;4830974;29;20052;-89
2021/07/17 08:42:43;;;;;;;0.20;0.20;;;;;;;;;;4831109;29;20105;-89
2021/07/17 08:45:09;;;;;;;0.20;0.20;;;;;;;;;;4831071;29;20077;-91
2021/07/17 08:47:38;;;;;;;0.20;0.20;;;;;;;;;;4830750;29;20042;-94
2021/07/17 08:50:05;;;;;;;0.20;0.20;;;;;;;;;;4830847;29;20045;-89
2021/07/17 08:52:34;;;;;;;0.20;0.20;;;;;;;;;;4831100;29;20053;-91
2021/07/17 08:55:07;;;;;;;0.30;0.30;;;;;;;;;;4830711;29;20050;-89
2021/07/17 08:57:45;;;;;;;0.20;0.20;;;;;;;;;;4846237;29;20034;-90
2021/07/17 09:00:17;;;;;;;0.20;0.20;;;;;;;;;;4846703;29;20041;-89
2021/07/17 09:02:44;;;;;;;0.20;0.20;;;;;;;;;;4845254;29;20052;-87
2021/07/17 09:05:11;;;;;;;0.20;0.20;;;;;;;;;;4845929;29;20379;-91
2021/07/17 09:07:37;;;;;;;0.20;0.20;;;;;;;;;;4832206;29;20037;-91
2021/07/17 09:10:22;;;;;;;0.20;0.20;;;;;;;;;;4830530;29;20372;-90
2021/07/17 09:12:48;;;;;;;0.20;0.20;;;;;;;;;;4862250;29;20056;-90
2021/07/17 09:15:18;;;;;;;0.20;0.20;;;;;;;;;;4815591;29;20053;-89
2021/07/17 09:17:45;;;;;;;;;;;;;;;;;;4846380;29;20041;-89
2021/07/17 09:20:11;;;;;;;1.05;0.50;;;;;;;;;;4862159;29;20433;-88
2021/07/17 09:22:38;;;;;;;0.20;0.20;;;;;;;;;;4845474;29;20065;-89
2021/07/17 09:25:05;;;;;;;0.20;0.20;;;;;;;;;;4830343;29;20041;-92
2021/07/17 09:27:31;;;;;;;0.20;0.20;;;;;;;;;;4845581;29;20394;-90
2021/07/17 09:29:57;;;;;;;0.20;0.20;;;;;;;;;;4845557;29;20460;-88
2021/07/17 09:32:23;;;;;;;0.60;0.60;;;;;;;;;;4845456;29;20080;-89
2021/07/17 09:34:50;;;;;;;0.20;0.20;;;;;;;;;;4830236;29;20073;-89
2021/07/17 09:37:17;;;;;;;0.20;0.20;;;;;;;;;;4830138;29;20116;-89
2021/07/17 09:39:46;;;;;;;0.20;0.20;;;;;;;;;;4830317;29;20042;-88
2021/07/17 09:42:13;;;;;;;0.20;0.20;;;;;;;;;;4845393;29;20069;-88
2021/07/17 09:44:39;;;;;;;0.20;0.20;;;;;;;;;;4845259;29;20201;-91
2021/07/17 09:47:34;;;;;;;0.20;0.20;;;;;;;;;;4829938;29;20201;-91
2021/07/17 09:50:13;;;;;;;0.40;0.40;;;;;;;;;;4816789;29;20061;-92
2021/07/17 09:52:43;;;;;;;0.20;0.20;;;;;;;;;;4818018;29;20137;-91
2021/07/17 09:55:16;;;;;;;0.20;0.20;;;;;;;;;;4811480;29;20575;-95
2021/07/17 09:57:42;;;;;;;0.20;0.20;;;;;;;;;;4829802;29;20056;-93
2021/07/17 10:00:11;;;;;;;0.50;0.50;;;;;;;;;;4811685;29;20376;-92
2021/07/17 10:02:39;;;;;;;0.20;0.20;;;;;;;;;;4808287;29;20066;-91
2021/07/17 10:05:05;;;;;;;0.20;0.20;;;;;;;;;;4793797;29;20388;-91
2021/07/17 10:07:34;;;;;;;0.20;0.20;;;;;;;;;;4793922;29;20046;-96
2021/07/17 10:10:01;;;;;;;0.20;0.20;;;;;;;;;;4795123;29;20054;-94
2021/07/17 10:12:32;;;;;;;0.30;0.30;;;;;;;;;;4778278;29;20147;-90
2021/07/17 10:14:58;;;;;;;0.20;0.20;;;;;;;;;;4793776;29;20057;-93
2021/07/17 10:17:33;;;;;;;0.20;0.20;;;;;;;;;;4793765;29;20283;-92
2021/07/17 10:20:04;;;;;;;0.20;0.20;;;;;;;;;;4793887;29;20560;-91
2021/07/17 10:22:30;;;;;;;0.20;0.20;;;;;;;;;;4794502;29;20440;-91
2021/07/17 10:24:56;;;;;;;0.20;0.20;;;;;;;;;;4793327;29;20095;-91
2021/07/17 10:27:22;;;;;;;0.20;0.20;;;;;;;;;;4793163;29;20070;-92
2021/07/17 10:29:48;;;;;;;0.20;0.20;;;;;;;;;;4778365;29;20123;-92
2021/07/17 10:32:14;;;;;;;0.20;0.20;;;;;;;;;;4793559;29;20046;-90
2021/07/17 10:34:40;;;;;;;0.20;0.20;;;;;;;;;;4793353;29;20042;-92
2021/07/17 10:37:08;;;;;;;0.30;0.30;;;;;;;;;;4778088;29;20408;-92
2021/07/17 10:39:34;;;;;;;0.20;0.20;;;;;;;;;;4792995;29;20187;-91
2021/07/17 10:42:01;;;;;;;0.20;0.20;;;;;;;;;;4793104;29;20074;-92
2021/07/17 10:45:05;;;;;;;0.20;0.20;;;;;;;;;;4793449;29;20081;-92
2021/07/17 10:47:41;;;;;;;0.20;0.20;;;;;;;;;;4753855;30;20051;-92
2021/07/17 10:50:08;;;;;;;0.20;0.20;;;;;;;;;;4738376;30;20516;-92
2021/07/17 10:52:35;;;;;;;0.20;0.20;;;;;;;;;;4767039;29;20564;-93
2021/07/17 10:55:28;;;;;;;0.20;0.20;;;;;;;;;;4777792;29;20058;-91
2021/07/17 10:57:54;;;;;;;0.20;0.20;;;;;;;;;;4805146;29;20061;-91
2021/07/17 11:00:39;;;;;;;0.30;0.30;;;;;;;;;;4778726;29;20062;-92
2021/07/17 11:03:14;;;;;;;0.20;0.20;;;;;;;;;;4792571;29;20043;-91
2021/07/17 11:05:40;;;;;;;0.20;0.20;;;;;;;;;;4792895;29;20058;-92
2021/07/17 11:08:06;;;;;;;0.20;0.20;;;;;;;;;;4777868;29;20050;-91
2021/07/17 11:10:42;;;;;;;0.20;0.20;;;;;;;;;;4794707;29;20046;-94
2021/07/17 11:13:08;;;;;;;0.20;0.20;;;;;;;;;;4779382;29;20134;-92
2021/07/17 11:15:34;;;;;;;0.20;0.20;;;;;;;;;;4793717;29;20054;-92
2021/07/17 11:18:09;;;;;;;0.20;0.20;;;;;;;;;;4823762;29;20129;-92
2021/07/17 11:20:38;;;;;;;0.20;0.20;;;;;;;;;;4792279;29;20449;-88
2021/07/17 11:23:04;;;;;;;0.20;0.20;;;;;;;;;;4807483;29;20050;-90
2021/07/17 11:25:33;;;;;;;0.20;0.20;;;;;;;;;;4807279;29;20436;-92
2021/07/17 11:27:59;;;;;;;0.20;0.20;;;;;;;;;;4778052;29;20085;-89
2021/07/17 11:30:25;;;;;;;0.20;0.20;;;;;;;;;;4792856;29;20046;-89
2021/07/17 11:33:07;;;;;;;0.20;0.20;;;;;;;;;;4790979;29;20054;-89
2021/07/17 11:35:36;;;;;;;0.20;0.20;;;;;;;;;;4825628;29;20054;-89
2021/07/17 11:38:03;;;;;;;0.20;0.20;;;;;;;;;;4810440;29;20447;-88
2021/07/17 11:40:29;;;;;;;0.20;0.20;;;;;;;;;;4810354;29;20053;-88
2021/07/17 11:43:03;;;;;;;0.20;0.20;;;;;;;;;;4810077;29;20133;-88
2021/07/17 11:45:29;;;;;;;0.17;0.17;;;;;;;;;;4796170;29;20092;-88
2021/07/17 11:47:55;;;;;;;0.13;0.13;;;;;;;;;;4825237;29;20065;-89
2021/07/17 11:50:24;;;;;;;0.15;0.15;;;;;;;;;;4826358;29;20082;-89
2021/07/17 11:52:50;;;;;;;0.20;0.20;;;;;;;;;;4810468;29;20046;-87
2021/07/17 11:55:16;;;;;;;0.20;0.20;;;;;;;;;;4825992;29;20041;-88
2021/07/17 11:57:43;;;;;;;0.13;0.13;;;;;;;;;;4826426;29;20042;-88
2021/07/17 12:00:10;;;;;;;0.20;0.20;;;;;;;;;;4840156;29;20073;-87
2021/07/17 12:02:36;;;;;;;0.20;0.20;;;;;;;;;;4841139;29;20046;-87
2021/07/17 12:05:05;;;;;;;0.20;0.20;;;;;;;;;;4825291;29;20050;-89
2021/07/17 12:07:32;;;;;;;0.20;0.20;;;;;;;;;;4840110;29;20049;-88
2021/07/17 12:09:58;;;;;;;0.20;0.20;;;;;;;;;;4840398;29;20120;-87
2021/07/17 12:12:32;;;;;;;0.25;0.22;;;;;;;;;;4841400;29;20059;-87
2021/07/17 12:15:01;;;;;;;0.20;0.20;;;;;;;;;;4826033;29;20038;-90
2021/07/17 12:17:27;;;;;;;0.17;0.17;;;;;;;;;;4841005;29;20221;-90
2021/07/17 12:20:00;;;;;;;0.20;0.20;;;;;;;;;;4825331;29;20506;-89
2021/07/17 12:22:27;;;;;;;0.20;0.20;;;;;;;;;;4840366;29;20046;-88
2021/07/17 12:25:06;;;;;;;0.20;0.20;;;;;;;;;;4810162;29;20103;-88
2021/07/17 12:27:33;;;;;;;0.20;0.20;;;;;;;;;;4840974;29;20038;-93
2021/07/17 12:29:59;;;;;;;0.20;0.20;;;;;;;;;;4810574;29;20049;-92
2021/07/17 12:32:25;;;;;;;0.20;0.20;;;;;;;;;;4826467;29;20042;-95
2021/07/17 12:34:55;;;;;;;0.80;0.30;;;;;;;;;;4841063;29;20038;-89
2021/07/17 12:37:30;;;;;;;0.10;0.10;;;;;;;;;;4843536;29;20543;-90
2021/07/17 12:40:06;;;;;;;0.45;0.45;;;;;;;;;;4807343;29;20054;-89
2021/07/17 12:42:44;;;;;;;0.30;0.30;;;;;;;;;;4795851;29;20050;-88
2021/07/17 12:45:15;;;;;;;0.20;0.20;;;;;;;;;;4799493;29;20042;-89
2021/07/17 12:47:51;;;;;;;0.20;0.20;;;;;;;;;;4827640;29;20424;-88
2021/07/17 12:50:24;;;;;;;0.20;0.20;;;;;;;;;;4827518;29;20119;-88
2021/07/17 12:53:31;;;;;;;0.20;0.20;;;;;;;;;;4843301;29;20050;-88
2021/07/17 12:55:57;;;;;;;0.20;0.20;;;;;;;;;;4843001;29;20102;-87
2021/07/17 12:58:23;;;;;;;0.43;0.20;;;;;;;;;;4828327;29;20102;-90
2021/07/17 13:00:49;;;;;;;0.20;0.20;;;;;;;;;;4827716;29;20050;-87
2021/07/17 13:03:15;;;;;;;0.20;0.20;;;;;;;;;;4842884;29;20042;-88
2021/07/17 13:05:49;;;;;;;0.20;0.20;;;;;;;;;;4827525;29;20049;-87
2021/07/17 13:08:25;;;;;;;0.13;0.13;;;;;;;;;;4843023;29;20052;-87
2021/07/17 13:10:51;;;;;;;0.30;0.30;;;;;;;;;;4827594;29;20484;-88
2021/07/17 13:13:17;;;;;;;0.20;0.20;;;;;;;;;;4826986;29;20056;-87
2021/07/17 13:15:51;;;;;;;0.20;0.20;;;;;;;;;;4842775;29;20038;-87
2021/07/17 13:18:20;;;;;;;0.20;0.20;;;;;;;;;;4842748;29;20060;-91
2021/07/17 13:20:56;;;;;;;0.20;0.20;;;;;;;;;;4827492;29;20094;-86
2021/07/17 13:23:24;;;;;;;0.30;0.30;;;;;;;;;;4842664;29;20046;-92
2021/07/17 13:25:50;;;;;;;0.55;0.55;;;;;;;;;;4827133;29;20042;-87
2021/07/17 13:28:16;;;;;;;0.20;0.20;;;;;;;;;;4826715;29;20061;-87
2021/07/17 13:30:42;;;;;;;0.10;0.10;;;;;;;;;;4842270;29;20037;-87
2021/07/17 13:33:09;;;;;;;0.20;0.20;;;;;;;;;;4827152;29;20067;-87
2021/07/17 13:35:36;;;;;;;0.20;0.20;;;;;;;;;;4842365;29;20069;-86
2021/07/17 13:38:05;;;;;;;0.28;0.28;;;;;;;;;;4842141;29;20046;-87
2021/07/17 13:40:41;;;;;;;0.20;0.20;;;;;;;;;;4843280;29;20046;-86
2021/07/17 13:43:07;;;;;;;0.20;0.20;;;;;;;;;;4841984;29;20049;-86
2021/07/17 13:45:34;;;;;;;0.20;0.20;;;;;;;;;;4826963;29;20037;-86
2021/07/17 13:48:00;;;;;;;0.10;0.10;;;;;;;;;;4826633;29;20045;-86
2021/07/17 13:50:30;;;;;;;0.20;0.20;;;;;;;;;;4811598;29;20057;-86
2021/07/17 13:52:56;;;;;;;0.20;0.20;;;;;;;;;;4827009;29;20054;-87
2021/07/17 13:55:26;;;;;;;0.20;0.20;;;;;;;;;;4841870;29;20446;-87
2021/07/17 13:58:01;;;;;;;0.20;0.20;;;;;;;;;;4841789;29;20038;-86
2021/07/17 14:00:27;;;;;;;0.10;0.10;;;;;;;;;;4826861;29;20048;-87
2021/07/17 14:02:53;;;;;;;0.20;0.20;;;;;;;;;;4841746;29;20050;-87
2021/07/17 14:05:19;;;;;;;0.20;0.20;;;;;;;;;;4841599;29;20042;-86
2021/07/17 14:07:45;;;;;;;0.20;0.20;;;;;;;;;;4843002;29;20486;-86
2021/07/17 14:10:11;;;;;;;0.20;0.20;;;;;;;;;;4841676;29;20130;-86
2021/07/17 14:12:38;;;;;;;0.20;0.20;;;;;;;;;;4826533;29;20046;-87
2021/07/17 14:15:04;;;;;;;0.20;0.20;;;;;;;;;;4842757;29;20535;-86
2021/07/17 14:17:30;;;;;;;0.20;0.20;;;;;;;;;;4826470;29;20065;-87
2021/07/17 14:19:56;;;;;;;0.20;0.20;;;;;;;;;;4841534;29;20447;-88
2021/07/17 14:22:22;;;;;;;0.20;0.20;;;;;;;;;;4841393;29;20038;-88
2021/07/17 14:24:49;;;;;;;0.20;0.20;;;;;;;;;;4826365;29;20110;-88
2021/07/17 14:27:15;;;;;;;0.35;0.35;;;;;;;;;;4841236;29;20129;-88
2021/07/17 14:29:41;;;;;;;0.20;0.20;;;;;;;;;;4841248;29;20071;-88
2021/07/17 14:32:08;;;;;;;0.20;0.20;;;;;;;;;;4841269;29;20042;-88
2021/07/17 14:34:34;;;;;;;0.20;0.20;;;;;;;;;;4841101;29;20077;-89
2021/07/17 14:37:00;;;;;;;0.20;0.20;;;;;;;;;;4826277;29;20049;-87
2021/07/17 14:39:26;;;;;;;0.20;0.20;;;;;;;;;;4826264;29;20046;-88
2021/07/17 14:41:52;;;;;;;0.20;0.20;;;;;;;;;;4826002;29;20492;-87
2021/07/17 14:44:18;;;;;;;0.20;0.20;;;;;;;;;;4825852;29;20125;-88
2021/07/17 14:46:44;;;;;;;0.20;0.20;;;;;;;;;;4825556;29;20050;-88